»·PEaware :: SWA1580 KSAN-KDEN

SWA1580 :: KSAN-KDEN

FLIGHT INFORMATION

Flight Status: Arrived
Operator:
Southwest Airlines
More flights by this operator :: More flights under this callsign
Pilot: Ben F. (2808)
Aircraft: BOEING 737-300
(B733)
More flights by this aircraft type
Origin: KSAN San Diego Intl-Lindbergh
United States
Destination: KDEN Denver Intl
United States
More flights between these airports :: More routes between these airports
Route: +ZZOOO2 MTBAL AVRRY EED J236 TBC OURAY LDORA2
File this flight plan on PilotEdge
Remarks: Hey Boss!!! SUP?
Altitude:
(Current/Filed)
35,000ft
Speed:
(Current/Filed)
426kts
Departed: 17-May-18 08:40 AM
Arrived: 17-May-18 10:26 AM
Distance/Time
Traveled:
740nm/1:46
Distance/Time
To Go:
Arrived

Flight Plot

Page will automatically refresh every two minutes.

Flight plan parsing failed; only flown route is shown


Map Options




Map Legend


Flown Route
Filed Route
Departure Airport
Arrival Airport
Navaid (VOR, NDB)
Fix

Horizontal Profiles

Position Reports

Time Latitude Longitude Heading Altitude Ground
Speed
17-May-18 08:12 32.732571 -117.195499 311 24ft 0kts
17-May-18 08:13 32.732571 -117.195499 311 24ft 0kts
17-May-18 08:14 32.732571 -117.195499 311 24ft 0kts
17-May-18 08:15 32.732571 -117.195499 311 24ft 0kts
17-May-18 08:16 32.732571 -117.195499 311 24ft 0kts
17-May-18 08:17 32.732571 -117.195499 311 24ft 0kts
17-May-18 08:18 32.732571 -117.195499 311 24ft 0kts
17-May-18 08:19 32.732571 -117.195499 311 24ft 0kts
17-May-18 08:20 32.732571 -117.195499 311 24ft 0kts
17-May-18 08:21 32.732571 -117.195499 311 24ft 0kts
17-May-18 08:22 32.732571 -117.195499 311 24ft 0kts
17-May-18 08:23 32.732571 -117.195499 311 24ft 0kts
17-May-18 08:24 32.732571 -117.195499 311 24ft 0kts
17-May-18 08:25 32.732571 -117.195499 311 24ft 0kts
17-May-18 08:26 32.732571 -117.195499 311 24ft 0kts
17-May-18 08:27 32.732571 -117.195499 311 24ft 0kts
17-May-18 08:28 32.732571 -117.195499 311 24ft 0kts
17-May-18 08:29 32.732571 -117.195499 311 24ft 0kts
17-May-18 08:30 32.732571 -117.195499 311 24ft 0kts
17-May-18 08:31 32.732571 -117.195499 311 24ft 0kts
17-May-18 08:32 32.732348 -117.195197 311 24ft 2kts
17-May-18 08:33 32.731970 -117.194947 16 24ft 1kts
17-May-18 08:34 32.731965 -117.194949 16 24ft 0kts
17-May-18 08:35 32.732372 -117.194751 27 24ft 6kts
17-May-18 08:36 32.732678 -117.190347 105 24ft 25kts
17-May-18 08:37 32.730639 -117.181916 105 24ft 27kts
17-May-18 08:38 32.729499 -117.176745 73 24ft 0kts
17-May-18 08:39 32.730245 -117.175991 291 24ft 12kts
17-May-18 08:40 32.737707 -117.206208 287 433ft 179kts
17-May-18 08:41 32.754398 -117.271143 283 2837ft 231kts
17-May-18 08:42 32.714840 -117.313834 154 5440ft 270kts
17-May-18 08:43 32.651347 -117.262211 148 8316ft 287kts
17-May-18 08:44 32.624852 -117.172215 96 10323ft 334kts
17-May-18 08:45 32.614409 -117.054494 96 12434ft 370kts
17-May-18 08:46 32.603294 -116.930410 95 14817ft 387kts
17-May-18 08:47 32.625224 -116.803375 65 16879ft 405kts
17-May-18 08:48 32.714679 -116.731659 16 18794ft 404kts
17-May-18 08:49 32.820483 -116.680299 16 20671ft 420kts
17-May-18 08:50 32.929977 -116.626685 16 22429ft 434kts
17-May-18 08:51 33.042650 -116.570263 17 24047ft 448kts
17-May-18 08:52 33.155609 -116.511238 18 25530ft 461kts
17-May-18 08:53 33.264219 -116.454383 17 26762ft 473kts
17-May-18 08:54 33.385357 -116.389947 24 28098ft 487kts
17-May-18 08:55 33.471388 -116.263591 53 29510ft 502kts
17-May-18 08:56 33.548704 -116.134005 52 30821ft 502kts
17-May-18 08:57 33.621379 -115.992394 71 31957ft 505kts
17-May-18 08:58 33.669277 -115.834078 69 33019ft 506kts
17-May-18 08:59 33.719143 -115.676179 69 33954ft 507kts
17-May-18 09:00 33.782793 -115.529772 33 34725ft 494kts
17-May-18 09:01 33.890340 -115.423693 37 34847ft 508kts
17-May-18 09:02 33.993595 -115.312879 37 34880ft 508kts
17-May-18 09:03 34.098868 -115.199797 37 34898ft 509kts
17-May-18 09:04 34.200456 -115.090729 37 34881ft 511kts
17-May-18 09:05 34.306719 -114.975934 37 34884ft 515kts
17-May-18 09:06 34.413339 -114.860357 36 34885ft 515kts
17-May-18 09:07 34.519759 -114.744597 36 34883ft 515kts
17-May-18 09:08 34.625805 -114.628826 36 34885ft 515kts
17-May-18 09:09 34.732162 -114.512301 36 34884ft 515kts
17-May-18 09:10 34.813133 -114.370054 62 34891ft 526kts
17-May-18 09:11 34.875380 -114.226447 60 34892ft 525kts
17-May-18 09:12 34.944212 -114.070112 61 34938ft 520kts
17-May-18 09:13 35.011705 -113.916005 61 34977ft 515kts
17-May-18 09:14 35.076797 -113.766719 61 34970ft 512kts
17-May-18 09:15 35.139283 -113.623378 61 34975ft 513kts
17-May-18 09:16 35.205822 -113.469511 61 34975ft 513kts
17-May-18 09:17 35.270807 -113.318414 62 34936ft 513kts
17-May-18 09:18 35.336330 -113.165223 62 35023ft 513kts
17-May-18 09:19 35.402191 -113.010772 62 35129ft 513kts
17-May-18 09:20 35.467689 -112.856450 62 35130ft 510kts
17-May-18 09:21 35.532841 -112.702238 62 35128ft 510kts
17-May-18 09:22 35.597823 -112.547709 62 35130ft 510kts
17-May-18 09:23 35.662432 -112.393349 62 35129ft 510kts
17-May-18 09:24 35.725173 -112.242493 63 35130ft 510kts
17-May-18 09:25 35.789581 -112.087175 63 35130ft 510kts
17-May-18 09:26 35.853415 -111.932524 63 35130ft 510kts
17-May-18 09:27 35.917200 -111.777263 63 35130ft 510kts
17-May-18 09:28 35.978973 -111.626197 63 35129ft 510kts
17-May-18 09:29 36.042292 -111.470615 63 35120ft 510kts
17-May-18 09:30 36.103495 -111.319471 63 35005ft 511kts
17-May-18 09:31 36.168060 -111.172906 58 34995ft 510kts
17-May-18 09:32 36.240413 -111.023256 58 34993ft 510kts
17-May-18 09:33 36.312893 -110.872666 58 34993ft 509kts
17-May-18 09:34 36.384831 -110.722533 58 34993ft 509kts
17-May-18 09:35 36.456711 -110.571788 58 34992ft 509kts
17-May-18 09:36 36.528343 -110.420878 58 34993ft 509kts
17-May-18 09:37 36.597165 -110.275015 59 35051ft 508kts
17-May-18 09:38 36.668417 -110.123506 58 35159ft 509kts
17-May-18 09:39 36.739507 -109.971715 58 35157ft 508kts
17-May-18 09:40 36.810445 -109.819585 58 35157ft 509kts
17-May-18 09:41 36.881236 -109.667076 59 35157ft 509kts
17-May-18 09:42 36.951652 -109.514676 58 35156ft 509kts
17-May-18 09:43 37.021869 -109.362003 59 35152ft 508kts
17-May-18 09:44 37.090024 -109.212850 60 35148ft 508kts
17-May-18 09:45 37.157179 -109.066136 60 35140ft 502kts
17-May-18 09:46 37.225579 -108.915375 60 35107ft 497kts
17-May-18 09:47 37.291733 -108.768909 60 35113ft 498kts
17-May-18 09:48 37.359476 -108.618237 60 35112ft 498kts
17-May-18 09:49 37.427298 -108.466692 60 35111ft 498kts
17-May-18 09:50 37.492106 -108.321156 61 35090ft 498kts
17-May-18 09:51 37.558969 -108.170153 61 35201ft 498kts
17-May-18 09:52 37.626108 -108.018048 61 35242ft 498kts
17-May-18 09:53 37.692929 -107.865949 61 35239ft 498kts
17-May-18 09:54 37.759712 -107.713210 61 35240ft 498kts
17-May-18 09:55 37.826102 -107.560651 61 35239ft 498kts
17-May-18 09:56 37.892318 -107.407764 61 35237ft 498kts
17-May-18 09:57 37.955526 -107.260901 61 35231ft 497kts
17-May-18 09:58 38.021091 -107.108053 61 35187ft 498kts
17-May-18 09:59 38.086933 -106.953857 61 35182ft 494kts
17-May-18 10:00 38.141987 -106.824955 60 35175ft 487kts
17-May-18 10:01 38.205538 -106.674871 60 35173ft 485kts
17-May-18 10:02 38.280561 -106.536216 39 35176ft 480kts
17-May-18 10:03 38.377307 -106.418842 40 35185ft 480kts
17-May-18 10:04 38.469105 -106.304668 41 35181ft 481kts
17-May-18 10:05 38.564048 -106.185747 41 35195ft 481kts
17-May-18 10:06 38.659179 -106.066564 41 35172ft 481kts
17-May-18 10:07 38.754573 -105.946578 41 34265ft 482kts
17-May-18 10:08 38.849726 -105.826505 42 31812ft 482kts
17-May-18 10:09 38.944539 -105.705794 43 28903ft 481kts
17-May-18 10:10 39.038096 -105.586546 43 25951ft 462kts
17-May-18 10:11 39.122307 -105.478928 43 23489ft 427kts
17-May-18 10:12 39.202789 -105.375629 42 21000ft 399kts
17-May-18 10:13 39.265305 -105.271147 77 18563ft 378kts
17-May-18 10:14 39.288456 -105.143166 76 16239ft 354kts
17-May-18 10:15 39.310432 -105.024736 77 16056ft 341kts
17-May-18 10:16 39.363964 -104.936037 38 15101ft 314kts
17-May-18 10:17 39.430915 -104.870087 37 13405ft 295kts
17-May-18 10:18 39.493550 -104.809811 37 12148ft 273kts
17-May-18 10:19 39.553888 -104.752580 37 10869ft 265kts
17-May-18 10:20 39.611380 -104.698386 37 9592ft 246kts
17-May-18 10:21 39.664619 -104.657589 354 8664ft 227kts
17-May-18 10:22 39.725652 -104.660528 355 7391ft 193kts
17-May-18 10:23 39.772293 -104.660087 353 6529ft 162kts
17-May-18 10:24 39.815885 -104.660551 357 5686ft 154kts
17-May-18 10:25 39.850158 -104.660257 358 5438ft 70kts
17-May-18 10:26 39.860996 -104.662796 269 5438ft 18kts
17-May-18 10:27 39.864564 -104.663404 351 5438ft 25kts
17-May-18 10:28 39.864171 -104.670293 268 5438ft 19kts
17-May-18 10:29 39.863506 -104.672103 187 5438ft 0kts

Navigation Log

Ident Type
Flight plan parsing failed, navigation log unavailable